createdAt,value
2022-08-24T00:02:02.568Z,48.34
2022-08-24T00:04:36.021Z,48.24
2022-08-24T00:07:21.481Z,48.38
2022-08-24T00:09:56.585Z,48.43
2022-08-24T00:12:25.807Z,48.47
2022-08-24T00:14:54.807Z,48.51
2022-08-24T00:17:22.897Z,48.60
2022-08-24T00:19:51.914Z,48.68
2022-08-24T00:22:23.867Z,48.51
2022-08-24T00:24:51.804Z,48.62
2022-08-24T00:27:19.701Z,48.62
2022-08-24T00:29:47.644Z,48.74
2022-08-24T00:32:15.670Z,48.68
2022-08-24T00:34:54.034Z,48.64
2022-08-24T00:37:36.048Z,49.05
2022-08-24T00:40:06.399Z,49.16
2022-08-24T00:42:34.632Z,49.13
2022-08-24T00:45:02.688Z,49.26
2022-08-24T00:47:36.326Z,49.42
2022-08-24T00:50:08.754Z,49.17
2022-08-24T00:52:43.154Z,49.25
2022-08-24T00:55:17.661Z,49.10
2022-08-24T00:57:50.763Z,49.22
2022-08-24T01:00:22.184Z,49.36
2022-08-24T01:02:55.229Z,49.25
2022-08-24T01:05:23.279Z,49.11
2022-08-24T01:07:52.631Z,49.38
2022-08-24T01:10:24.974Z,49.46
2022-08-24T01:13:00.635Z,49.58
2022-08-24T01:15:30.375Z,49.46
2022-08-24T01:18:16.292Z,49.47
2022-08-24T01:20:55.072Z,49.45
2022-08-24T01:23:36.717Z,49.68
2022-08-24T01:26:07.807Z,49.35
2022-08-24T01:28:39.879Z,49.43
2022-08-24T01:31:09.838Z,49.50
2022-08-24T01:33:38.245Z,49.46
2022-08-24T01:36:15.821Z,49.53
2022-08-24T01:38:51.674Z,49.78
2022-08-24T01:41:19.994Z,49.66
2022-08-24T01:43:48.062Z,49.62
2022-08-24T01:46:16.818Z,49.72
2022-08-24T01:48:51.486Z,49.51
2022-08-24T01:51:21.011Z,49.67
2022-08-24T01:53:49.573Z,49.77
2022-08-24T01:56:22.544Z,49.88
2022-08-24T01:58:50.776Z,49.77
2022-08-24T02:01:20.454Z,50.20
2022-08-24T02:03:51.974Z,49.94
2022-08-24T02:06:21.843Z,49.90
2022-08-24T02:08:49.899Z,50.06
2022-08-24T02:11:17.826Z,50.09
2022-08-24T02:13:47.542Z,50.04
2022-08-24T02:16:15.820Z,50.13
2022-08-24T02:18:44.875Z,50.13
2022-08-24T02:21:16.850Z,50.11
2022-08-24T02:23:47.715Z,50.42
2022-08-24T02:26:19.186Z,50.27
2022-08-24T02:28:50.945Z,50.23
2022-08-24T02:31:19.127Z,50.33
2022-08-24T02:33:47.615Z,50.59
2022-08-24T02:36:25.361Z,50.74
2022-08-24T02:38:56.334Z,50.66
2022-08-24T02:41:25.936Z,50.82
2022-08-24T02:43:57.314Z,51.08
2022-08-24T02:46:27.986Z,50.99
2022-08-24T02:49:10.518Z,50.99
2022-08-24T02:51:47.311Z,51.23
2022-08-24T02:54:19.925Z,51.25
2022-08-24T02:56:50.746Z,51.46
2022-08-24T02:59:20.457Z,51.17
2022-08-24T03:01:50.363Z,51.36
2022-08-24T03:04:20.081Z,51.46
2022-08-24T03:06:48.628Z,51.61
2022-08-24T03:09:17.658Z,51.17
2022-08-24T03:11:47.065Z,51.41
2022-08-24T03:14:18.594Z,51.65
2022-08-24T03:16:48.194Z,51.46
2022-08-24T03:19:16.343Z,51.60
2022-08-24T03:21:48.641Z,51.64
2022-08-24T03:24:16.585Z,51.53
2022-08-24T03:26:44.686Z,51.86
2022-08-24T03:29:20.352Z,51.54
2022-08-24T03:31:57.011Z,51.69
2022-08-24T03:34:26.708Z,51.61
2022-08-24T03:36:54.557Z,51.72
2022-08-24T03:39:22.584Z,51.69
2022-08-24T03:41:54.750Z,51.74
2022-08-24T03:44:25.152Z,51.83
2022-08-24T03:46:59.291Z,51.98
2022-08-24T03:49:32.972Z,51.90
2022-08-24T03:52:01.488Z,51.71
2022-08-24T03:54:29.559Z,52.06
2022-08-24T03:56:58.822Z,51.99
2022-08-24T03:59:27.146Z,51.84
2022-08-24T04:02:01.816Z,51.99
2022-08-24T04:04:31.191Z,52.12
2022-08-24T04:06:59.353Z,52.00
2022-08-24T04:09:32.295Z,51.96
2022-08-24T04:12:00.275Z,51.92
2022-08-24T04:14:28.510Z,52.31
2022-08-24T04:17:08.819Z,52.50
2022-08-24T04:19:57.882Z,52.54
2022-08-24T04:22:34.062Z,52.40
2022-08-24T04:25:02.295Z,52.70
2022-08-24T04:27:37.135Z,52.76
2022-08-24T04:30:08.820Z,52.70
2022-08-24T04:32:58.640Z,52.83
2022-08-24T04:35:26.773Z,52.80
2022-08-24T04:37:54.792Z,52.80
2022-08-24T04:40:22.910Z,52.59
2022-08-24T04:42:55.090Z,52.53
2022-08-24T04:45:24.174Z,52.79
2022-08-24T04:47:52.775Z,52.94
2022-08-24T04:50:26.299Z,52.53
2022-08-24T04:52:55.398Z,52.52
2022-08-24T04:55:23.972Z,52.87
2022-08-24T04:57:52.056Z,53.18
2022-08-24T05:00:22.101Z,53.04
2022-08-24T05:02:55.987Z,53.10
2022-08-24T05:05:25.933Z,53.27
2022-08-24T05:07:56.718Z,53.55
2022-08-24T05:10:29.354Z,53.53
2022-08-24T05:13:01.874Z,53.35
2022-08-24T05:15:32.407Z,53.23
2022-08-24T05:18:00.882Z,52.94
2022-08-24T05:20:30.668Z,52.58
2022-08-24T05:23:05.509Z,52.93
2022-08-24T05:25:44.221Z,53.18
2022-08-24T05:28:12.271Z,52.76
2022-08-24T05:30:42.728Z,52.67
2022-08-24T05:33:11.123Z,50.88
2022-08-24T05:35:52.505Z,48.54
2022-08-24T05:38:20.547Z,46.98
2022-08-24T05:40:49.063Z,46.16
2022-08-24T05:43:17.156Z,45.62
2022-08-24T05:45:45.356Z,45.20
2022-08-24T05:48:16.031Z,44.67
2022-08-24T05:51:12.335Z,44.53
2022-08-24T05:53:56.309Z,44.24
2022-08-24T05:56:31.306Z,43.93
2022-08-24T05:59:07.213Z,43.95
2022-08-24T06:01:41.180Z,44.15
2022-08-24T06:04:12.370Z,44.28
2022-08-24T06:06:42.245Z,45.15
2022-08-24T06:09:12.683Z,45.84
2022-08-24T06:11:43.081Z,46.24
2022-08-24T06:14:15.076Z,46.76
2022-08-24T06:16:57.971Z,47.35
2022-08-24T06:19:27.179Z,47.59
2022-08-24T06:21:57.338Z,47.94
2022-08-24T06:24:54.289Z,48.36
2022-08-24T06:27:23.248Z,48.57
2022-08-24T06:29:56.554Z,48.67
2022-08-24T06:32:55.652Z,48.67
2022-08-24T06:35:32.434Z,48.75
2022-08-24T06:38:03.476Z,48.89
2022-08-24T06:40:35.027Z,48.89
2022-08-24T06:43:04.385Z,49.07
2022-08-24T06:45:46.387Z,48.93
2022-08-24T06:48:17.465Z,49.17
2022-08-24T06:50:47.354Z,48.99
2022-08-24T06:53:18.126Z,48.98
2022-08-24T06:55:48.476Z,48.92
2022-08-24T06:58:17.034Z,48.77
2022-08-24T07:00:49.124Z,48.69
2022-08-24T07:03:19.480Z,48.96
2022-08-24T07:06:08.999Z,49.14
2022-08-24T07:08:45.140Z,49.09
2022-08-24T07:11:18.074Z,49.10
2022-08-24T07:13:51.088Z,49.01
2022-08-24T07:16:23.406Z,48.92
2022-08-24T07:18:54.771Z,49.13
2022-08-24T07:21:23.755Z,49.16
2022-08-24T07:23:58.537Z,49.25
2022-08-24T07:26:30.519Z,49.24
2022-08-24T07:29:05.366Z,49.14
2022-08-24T07:31:43.452Z,48.91
2022-08-24T07:34:29.261Z,48.97
2022-08-24T07:37:00.369Z,49.04
2022-08-24T07:39:31.049Z,48.92
2022-08-24T07:42:12.970Z,48.92
2022-08-24T07:44:46.246Z,48.79
2022-08-24T07:47:37.045Z,48.71
2022-08-24T07:50:06.862Z,48.52
2022-08-24T07:52:35.486Z,48.33
2022-08-24T07:55:06.196Z,48.13
2022-08-24T07:57:34.906Z,48.00
2022-08-24T08:00:06.932Z,48.17
2022-08-24T08:02:46.538Z,48.19
2022-08-24T08:05:21.629Z,47.94
2022-08-24T08:07:53.204Z,47.70
2022-08-24T08:10:23.628Z,47.66
2022-08-24T08:12:53.691Z,47.87
2022-08-24T08:15:21.638Z,47.52
2022-08-24T08:18:06.762Z,47.70
2022-08-24T08:20:42.231Z,47.44
2022-08-24T08:23:43.715Z,47.53
2022-08-24T08:26:25.517Z,47.50
2022-08-24T08:29:16.841Z,47.56
2022-08-24T08:31:45.318Z,47.52
2022-08-24T08:34:14.622Z,47.29
2022-08-24T08:36:43.810Z,47.13
2022-08-24T08:39:17.361Z,46.82
2022-08-24T08:42:17.074Z,47.18
2022-08-24T08:45:00.576Z,46.98
2022-08-24T08:47:59.682Z,46.54
2022-08-24T08:50:40.943Z,46.89
2022-08-24T08:54:02.790Z,46.64
2022-08-24T08:56:42.265Z,46.51
2022-08-24T08:59:27.295Z,46.57
2022-08-24T09:02:18.230Z,46.17
2022-08-24T09:05:28.641Z,46.05
2022-08-24T09:08:05.621Z,46.56
2022-08-24T09:10:57.705Z,46.11
2022-08-24T09:13:55.983Z,46.06
2022-08-24T09:17:01.661Z,45.79
2022-08-24T09:19:43.926Z,45.22
2022-08-24T09:22:15.243Z,46.13
2022-08-24T09:25:07.363Z,45.78
2022-08-24T09:28:09.375Z,46.09
2022-08-24T09:30:59.557Z,46.04
2022-08-24T09:33:37.059Z,46.09
2022-08-24T09:36:13.038Z,45.87
2022-08-24T09:39:00.439Z,45.34
2022-08-24T09:41:59.889Z,44.95
2022-08-24T09:44:56.768Z,45.42
2022-08-24T09:48:04.215Z,43.79
2022-08-24T09:51:02.161Z,45.20
2022-08-24T09:54:16.797Z,44.34
2022-08-24T09:57:11.674Z,45.54
2022-08-24T10:00:10.242Z,45.27
2022-08-24T10:02:54.326Z,45.49
2022-08-24T10:05:36.059Z,44.94
2022-08-24T10:08:18.669Z,44.38
2022-08-24T10:10:54.598Z,45.01
2022-08-24T10:13:34.031Z,45.05
2022-08-24T10:16:22.502Z,44.31
2022-08-24T10:19:13.736Z,44.52
2022-08-24T10:21:51.593Z,44.62
2022-08-24T10:24:52.047Z,44.09
2022-08-24T10:27:45.780Z,44.39
2022-08-24T10:30:49.168Z,43.85
2022-08-24T10:33:22.252Z,44.28
2022-08-24T10:36:18.291Z,43.51
2022-08-24T10:39:18.506Z,44.32
2022-08-24T10:42:44.237Z,43.94
2022-08-24T10:45:41.106Z,42.91
2022-08-24T10:48:33.398Z,43.18
2022-08-24T10:51:20.535Z,43.63
2022-08-24T10:53:59.009Z,39.50
2022-08-24T10:56:38.083Z,43.33
2022-08-24T10:59:23.281Z,43.28
2022-08-24T11:02:13.695Z,41.14
2022-08-24T11:04:44.950Z,43.41
2022-08-24T11:07:21.616Z,43.56
2022-08-24T11:09:53.426Z,43.44
2022-08-24T11:12:30.643Z,42.65
2022-08-24T11:15:01.800Z,43.55
2022-08-24T11:17:34.802Z,43.10
2022-08-24T11:20:03.409Z,43.13
2022-08-24T11:22:41.097Z,43.07
2022-08-24T11:25:16.561Z,43.34
2022-08-24T11:27:47.627Z,43.20
2022-08-24T11:30:24.477Z,42.83
2022-08-24T11:32:57.597Z,43.00
2022-08-24T11:35:35.946Z,43.54
2022-08-24T11:38:20.312Z,42.01
2022-08-24T11:40:57.994Z,43.16
2022-08-24T11:43:39.874Z,42.86
2022-08-24T11:46:19.256Z,43.13
2022-08-24T11:49:02.775Z,42.53
2022-08-24T11:51:48.097Z,42.84
2022-08-24T11:54:28.132Z,42.16
2022-08-24T11:57:09.991Z,41.80
2022-08-24T11:59:48.251Z,41.82
2022-08-24T12:02:27.321Z,41.83
2022-08-24T12:05:10.315Z,42.06
2022-08-24T12:07:59.803Z,41.85
2022-08-24T12:10:39.333Z,42.24
2022-08-24T12:13:16.790Z,42.51
2022-08-24T12:15:52.726Z,42.67
2022-08-24T12:18:34.330Z,39.61
2022-08-24T12:21:12.159Z,42.39
2022-08-24T12:23:44.443Z,42.04
2022-08-24T12:26:20.376Z,42.02
2022-08-24T12:28:58.535Z,40.64
2022-08-24T12:31:36.272Z,42.19
2022-08-24T12:34:11.552Z,41.36
2022-08-24T12:36:55.500Z,41.77
2022-08-24T12:39:27.052Z,42.65
2022-08-24T12:42:06.688Z,41.74
2022-08-24T12:44:46.484Z,42.43
2022-08-24T12:47:34.664Z,40.98
2022-08-24T12:50:06.940Z,42.04
2022-08-24T12:53:16.064Z,35.65
2022-08-24T12:56:19.524Z,39.81
2022-08-24T12:59:06.570Z,39.96
2022-08-24T13:01:44.372Z,41.87
2022-08-24T13:04:19.463Z,41.70
2022-08-24T13:06:54.258Z,41.47
2022-08-24T13:09:32.889Z,41.45
2022-08-24T13:12:17.516Z,42.14
2022-08-24T13:15:26.132Z,38.90
2022-08-24T13:18:01.684Z,41.30
2022-08-24T13:20:54.349Z,41.30
2022-08-24T13:23:23.595Z,41.52
2022-08-24T13:26:23.393Z,40.28
2022-08-24T13:28:56.933Z,39.95
2022-08-24T13:31:33.548Z,40.96
2022-08-24T13:34:38.205Z,40.57
2022-08-24T13:37:23.406Z,41.05
2022-08-24T13:40:04.819Z,40.77
2022-08-24T13:43:11.443Z,39.61
2022-08-24T13:45:46.896Z,41.66
2022-08-24T13:48:27.116Z,40.56
2022-08-24T13:51:21.735Z,37.55
2022-08-24T13:54:13.630Z,40.80
2022-08-24T13:57:11.969Z,40.75
2022-08-24T14:00:00.810Z,38.18
2022-08-24T14:02:40.158Z,40.96
2022-08-24T14:05:19.297Z,41.25
2022-08-24T14:07:55.163Z,40.59
2022-08-24T14:10:44.497Z,40.02
2022-08-24T14:13:38.465Z,41.25
2022-08-24T14:16:40.563Z,33.95
2022-08-24T14:19:20.944Z,40.80
2022-08-24T14:21:59.742Z,40.59
2022-08-24T14:24:45.318Z,40.44
2022-08-24T14:27:41.138Z,38.65
2022-08-24T14:30:50.363Z,37.77
2022-08-24T14:33:31.879Z,38.56
2022-08-24T14:36:25.704Z,39.60
2022-08-24T14:39:05.204Z,40.52
2022-08-24T14:42:10.981Z,40.10
2022-08-24T14:44:57.703Z,41.05
2022-08-24T14:47:42.715Z,40.28
2022-08-24T14:50:23.956Z,35.95
2022-08-24T14:53:17.453Z,40.59
2022-08-24T14:55:56.982Z,40.50
2022-08-24T14:58:43.403Z,37.78
2022-08-24T15:01:39.642Z,38.44
2022-08-24T15:04:41.064Z,36.58
2022-08-24T15:07:33.972Z,38.05
2022-08-24T15:10:14.857Z,39.27
2022-08-24T15:12:46.367Z,40.52
2022-08-24T15:15:31.536Z,40.73
2022-08-24T15:18:09.458Z,40.81
2022-08-24T15:20:54.625Z,40.71
2022-08-24T15:23:37.457Z,41.06
2022-08-24T15:26:19.846Z,39.44
2022-08-24T15:28:56.435Z,40.29
2022-08-24T15:31:29.060Z,40.74
2022-08-24T15:34:00.229Z,40.92
2022-08-24T15:36:30.162Z,40.73
2022-08-24T15:38:59.835Z,40.79
2022-08-24T15:41:31.667Z,41.03
2022-08-24T15:44:03.251Z,41.04
2022-08-24T15:46:38.127Z,40.84
2022-08-24T15:49:17.127Z,40.81
2022-08-24T15:51:49.414Z,40.63
2022-08-24T15:54:33.423Z,35.94
2022-08-24T15:57:04.584Z,40.54
2022-08-24T15:59:49.187Z,41.22
2022-08-24T16:02:26.106Z,39.81
2022-08-24T16:05:02.566Z,41.00
2022-08-24T16:07:54.935Z,40.94
2022-08-24T16:10:32.827Z,40.93
2022-08-24T16:13:08.932Z,41.56
2022-08-24T16:15:47.557Z,40.69
2022-08-24T16:18:16.671Z,40.95
2022-08-24T16:20:46.642Z,41.21
2022-08-24T16:23:25.132Z,36.91
2022-08-24T16:26:26.608Z,36.85
2022-08-24T16:29:10.095Z,40.13
2022-08-24T16:31:51.820Z,40.83
2022-08-24T16:34:29.749Z,41.23
2022-08-24T16:36:57.896Z,40.81
2022-08-24T16:39:26.171Z,40.93
2022-08-24T16:41:59.495Z,40.64
2022-08-24T16:44:35.091Z,40.93
2022-08-24T16:47:03.559Z,41.16
2022-08-24T16:49:32.946Z,40.88
2022-08-24T16:52:05.268Z,40.69
2022-08-24T16:54:35.749Z,41.03
2022-08-24T16:57:16.752Z,40.63
2022-08-24T16:59:48.289Z,41.52
2022-08-24T17:02:21.609Z,41.93
2022-08-24T17:04:50.969Z,41.64
2022-08-24T17:07:24.065Z,41.27
2022-08-24T17:09:55.531Z,41.07
2022-08-24T17:12:26.237Z,41.18
2022-08-24T17:14:54.839Z,41.48
2022-08-24T17:17:25.621Z,41.71
2022-08-24T17:19:55.794Z,41.66
2022-08-24T17:22:27.659Z,41.53
2022-08-24T17:24:56.496Z,41.45
2022-08-24T17:27:31.384Z,40.64
2022-08-24T17:29:59.954Z,41.69
2022-08-24T17:32:28.320Z,42.09
2022-08-24T17:34:56.380Z,41.38
2022-08-24T17:37:27.043Z,41.37
2022-08-24T17:39:57.783Z,41.59
2022-08-24T17:42:49.611Z,41.64
2022-08-24T17:45:18.505Z,41.95
2022-08-24T17:47:46.632Z,42.02
2022-08-24T17:50:24.888Z,41.92
2022-08-24T17:52:58.953Z,42.41
2022-08-24T17:55:34.299Z,42.14
2022-08-24T17:58:06.287Z,42.23
2022-08-24T18:00:36.756Z,42.51
2022-08-24T18:03:16.708Z,42.37
2022-08-24T18:05:44.845Z,42.25
2022-08-24T18:08:13.250Z,42.65
2022-08-24T18:10:41.356Z,42.73
2022-08-24T18:13:11.879Z,42.59
2022-08-24T18:15:39.797Z,42.85
2022-08-24T18:18:10.012Z,43.09
2022-08-24T18:20:42.530Z,42.87
2022-08-24T18:23:11.689Z,42.65
2022-08-24T18:25:44.894Z,42.95
2022-08-24T18:28:15.908Z,42.83
2022-08-24T18:30:46.893Z,43.07
2022-08-24T18:33:15.179Z,43.00
2022-08-24T18:35:47.653Z,42.91
2022-08-24T18:38:15.727Z,43.13
2022-08-24T18:40:52.200Z,42.85
2022-08-24T18:43:23.996Z,42.98
2022-08-24T18:45:55.875Z,43.42
2022-08-24T18:48:24.466Z,43.55
2022-08-24T18:50:53.976Z,43.74
2022-08-24T18:53:25.653Z,43.68
2022-08-24T18:55:53.722Z,43.68
2022-08-24T18:58:23.496Z,43.86
2022-08-24T19:00:51.784Z,44.02
2022-08-24T19:03:24.759Z,43.79
2022-08-24T19:05:54.681Z,44.03
2022-08-24T19:08:23.177Z,43.50
2022-08-24T19:10:52.836Z,43.63
2022-08-24T19:13:21.130Z,43.89
2022-08-24T19:15:54.219Z,43.82
2022-08-24T19:18:25.413Z,43.89
2022-08-24T19:20:59.102Z,43.71
2022-08-24T19:23:31.324Z,43.91
2022-08-24T19:25:59.761Z,44.10
2022-08-24T19:28:31.802Z,44.11
2022-08-24T19:31:04.314Z,44.09
2022-08-24T19:33:36.974Z,43.98
2022-08-24T19:36:05.227Z,43.85
2022-08-24T19:38:33.445Z,44.14
2022-08-24T19:41:02.770Z,44.07
2022-08-24T19:44:00.236Z,44.31
2022-08-24T19:46:28.744Z,44.17
2022-08-24T19:48:57.200Z,44.26
2022-08-24T19:51:26.679Z,44.50
2022-08-24T19:53:54.850Z,44.55
2022-08-24T19:56:23.745Z,44.33
2022-08-24T19:58:54.483Z,44.27
2022-08-24T20:01:25.277Z,44.48
2022-08-24T20:03:58.401Z,44.39
2022-08-24T20:06:27.337Z,44.36
2022-08-24T20:08:59.483Z,44.76
2022-08-24T20:11:27.472Z,44.68
2022-08-24T20:14:07.663Z,45.06
2022-08-24T20:16:39.669Z,44.93
2022-08-24T20:19:11.987Z,44.80
2022-08-24T20:21:43.148Z,44.92
2022-08-24T20:24:11.296Z,45.35
2022-08-24T20:26:44.034Z,45.26
2022-08-24T20:29:13.810Z,45.31
2022-08-24T20:31:41.939Z,45.28
2022-08-24T20:34:13.018Z,45.13
2022-08-24T20:36:46.083Z,45.43
2022-08-24T20:39:19.088Z,45.45
2022-08-24T20:41:47.272Z,45.54
2022-08-24T20:44:15.351Z,45.56
2022-08-24T20:46:46.784Z,45.67
2022-08-24T20:49:22.310Z,45.90
2022-08-24T20:51:53.337Z,45.88
2022-08-24T20:54:21.394Z,45.95
2022-08-24T20:56:50.488Z,46.07
2022-08-24T20:59:18.895Z,46.03
2022-08-24T21:01:47.952Z,45.97
2022-08-24T21:04:16.147Z,45.95
2022-08-24T21:06:50.838Z,46.11
2022-08-24T21:09:19.678Z,46.20
2022-08-24T21:11:48.754Z,46.29
2022-08-24T21:14:22.014Z,46.20
2022-08-24T21:16:50.231Z,46.41
2022-08-24T21:19:18.280Z,46.36
2022-08-24T21:21:48.248Z,46.41
2022-08-24T21:24:17.574Z,46.51
2022-08-24T21:26:45.883Z,46.71
2022-08-24T21:29:14.389Z,46.67
2022-08-24T21:31:42.526Z,46.72
2022-08-24T21:34:31.545Z,46.74
2022-08-24T21:37:01.556Z,46.67
2022-08-24T21:39:31.786Z,46.86
2022-08-24T21:42:01.631Z,46.99
2022-08-24T21:44:29.934Z,47.13
2022-08-24T21:46:58.303Z,46.96
2022-08-24T21:49:26.579Z,47.25
2022-08-24T21:51:55.429Z,47.20
2022-08-24T21:54:27.437Z,47.27
2022-08-24T21:56:55.461Z,47.20
2022-08-24T21:59:23.510Z,47.27
2022-08-24T22:01:52.295Z,47.48
2022-08-24T22:04:20.823Z,47.56
2022-08-24T22:06:49.963Z,47.48
2022-08-24T22:09:18.796Z,47.76
2022-08-24T22:11:49.727Z,47.70
2022-08-24T22:14:18.622Z,47.55
2022-08-24T22:16:47.537Z,47.68
2022-08-24T22:19:22.133Z,47.78
2022-08-24T22:21:55.740Z,47.64
2022-08-24T22:24:24.829Z,47.87
2022-08-24T22:26:58.370Z,47.92
2022-08-24T22:29:28.113Z,47.98
2022-08-24T22:31:56.897Z,47.97
2022-08-24T22:34:25.812Z,48.04
2022-08-24T22:37:00.302Z,48.04
2022-08-24T22:39:28.792Z,48.13
2022-08-24T22:42:07.358Z,48.17
2022-08-24T22:44:36.612Z,48.17
2022-08-24T22:47:13.101Z,48.33
2022-08-24T22:49:45.259Z,48.29
2022-08-24T22:52:18.787Z,48.45
2022-08-24T22:54:52.691Z,48.51
2022-08-24T22:57:22.489Z,48.36
2022-08-24T23:00:01.394Z,48.53
2022-08-24T23:02:31.931Z,48.39
2022-08-24T23:05:05.493Z,48.66
2022-08-24T23:07:46.244Z,48.77
2022-08-24T23:10:25.322Z,48.75
2022-08-24T23:12:57.783Z,48.75
2022-08-24T23:15:29.155Z,48.91
2022-08-24T23:18:01.789Z,48.96
2022-08-24T23:20:29.468Z,48.89
2022-08-24T23:23:00.982Z,48.88
2022-08-24T23:25:32.934Z,48.98
2022-08-24T23:28:02.386Z,49.04
2022-08-24T23:30:33.823Z,48.93
2022-08-24T23:33:01.945Z,49.04
2022-08-24T23:35:30.050Z,49.23
2022-08-24T23:37:58.862Z,49.36
2022-08-24T23:40:30.248Z,49.35
2022-08-24T23:43:01.646Z,49.61
2022-08-24T23:45:31.952Z,49.52
2022-08-24T23:48:01.413Z,49.48
2022-08-24T23:50:29.526Z,49.68
2022-08-24T23:52:57.504Z,50.05
2022-08-24T23:55:26.016Z,49.72
2022-08-24T23:57:54.782Z,49.99
